OMRK METAR and TAF | Updated Today

OMRK METAR

Ras Al Khaimah International Airport

Observation time: 5 min. ago

OMRK 080700Z 09005KT 030V140 CAVOK 28/10 Q1020 A3015

Need help? Read our tutorial on how to read METARs or read the parsed version below.

Ras Al Khaimah International Airport (OMRK) METAR

  • Weather conditions on Wed, 08 Dec 2021 07:00:00 +0000 (5 min. ago):
  • Present conditions: Dry
  • Clouds: Clear skies
  • Visibility: Greater than 10 km
  • Wind: 90 degrees at 5 knots
  • Temperature: 28 celsius
  • Dew point: 10 celsius
  • Pressure: 1020 millibars
  • Remarks: None


Useful to know...

OMRK TAF

Ras Al Khaimah International Airport

TAF OMRK 080500Z 0806/0912 10005KT CAVOK BECMG 0809/0811 35010KT BECMG 0814/0816 10005KT BECMG 0908/0910 33010KT
Observation time: 2:05 hr. ago
Need help? Read our tutorial on how to read TAFs or read the parsed version below.

Parsed version of TAF for Ras Al Khaimah International Airport (OMRK)

  • From 08 December at 06:00 UTC, to day 09 of the month at 12:00 UTC
  • Visibility: Greater than 10 km
  • Wind: 100 degrees at 5
  • Expected to arise soon, from 08 December at 09:00 UTC, to day 08 of the month at 11:00 UTC
  • Wind: 350 degrees at 10
  • Expected to arise soon, from 08 December at 14:00 UTC, to day 08 of the month at 16:00 UTC
  • Wind: 100 degrees at 5
  • Expected to arise soon, from 09 December at 08:00 UTC, to day 09 of the month at 10:00 UTC
  • Wind: 330 degrees at 10